sensor_id;sensor_type;location;lat;lon;timestamp;temperature;humidity
25732;DHT22;13585;50.864;4.406;2023-07-20T00:00:05;28.30;48.50
25732;DHT22;13585;50.864;4.406;2023-07-20T00:02:31;28.30;48.50
25732;DHT22;13585;50.864;4.406;2023-07-20T00:04:56;28.30;48.50
25732;DHT22;13585;50.864;4.406;2023-07-20T00:07:22;28.30;48.50
25732;DHT22;13585;50.864;4.406;2023-07-20T00:09:47;28.30;49.10
25732;DHT22;13585;50.864;4.406;2023-07-20T00:12:14;28.30;48.40
25732;DHT22;13585;50.864;4.406;2023-07-20T00:14:39;28.30;48.30
25732;DHT22;13585;50.864;4.406;2023-07-20T00:17:05;28.30;48.30
25732;DHT22;13585;50.864;4.406;2023-07-20T00:19:31;28.30;48.30
25732;DHT22;13585;50.864;4.406;2023-07-20T00:21:57;28.30;48.30
25732;DHT22;13585;50.864;4.406;2023-07-20T00:24:23;28.30;48.30
25732;DHT22;13585;50.864;4.406;2023-07-20T00:26:49;28.30;48.30
25732;DHT22;13585;50.864;4.406;2023-07-20T00:29:15;28.30;48.20
25732;DHT22;13585;50.864;4.406;2023-07-20T00:31:40;28.30;48.30
25732;DHT22;13585;50.864;4.406;2023-07-20T00:34:06;28.30;48.20
25732;DHT22;13585;50.864;4.406;2023-07-20T00:36:32;28.30;48.20
25732;DHT22;13585;50.864;4.406;2023-07-20T00:38:58;28.30;48.20
25732;DHT22;13585;50.864;4.406;2023-07-20T00:41:23;28.30;48.20
25732;DHT22;13585;50.864;4.406;2023-07-20T00:43:50;28.30;48.20
25732;DHT22;13585;50.864;4.406;2023-07-20T00:46:16;28.20;48.10
25732;DHT22;13585;50.864;4.406;2023-07-20T00:48:42;28.20;48.10
25732;DHT22;13585;50.864;4.406;2023-07-20T00:51:08;28.20;48.10
25732;DHT22;13585;50.864;4.406;2023-07-20T00:53:34;28.20;48.20
25732;DHT22;13585;50.864;4.406;2023-07-20T00:56:00;28.20;48.20
25732;DHT22;13585;50.864;4.406;2023-07-20T00:58:26;28.20;48.30
25732;DHT22;13585;50.864;4.406;2023-07-20T01:00:51;28.20;48.30
25732;DHT22;13585;50.864;4.406;2023-07-20T01:03:17;28.10;48.20
25732;DHT22;13585;50.864;4.406;2023-07-20T01:05:57;28.20;48.30
25732;DHT22;13585;50.864;4.406;2023-07-20T01:11:07;28.10;48.20
25732;DHT22;13585;50.864;4.406;2023-07-20T01:13:36;28.10;48.30
25732;DHT22;13585;50.864;4.406;2023-07-20T01:16:02;28.10;48.20
25732;DHT22;13585;50.864;4.406;2023-07-20T01:18:28;28.10;48.20
25732;DHT22;13585;50.864;4.406;2023-07-20T01:20:59;28.10;48.20
25732;DHT22;13585;50.864;4.406;2023-07-20T01:31:52;28.10;48.20
25732;DHT22;13585;50.864;4.406;2023-07-20T01:34:19;28.10;48.20
25732;DHT22;13585;50.864;4.406;2023-07-20T01:36:48;28.10;48.20
25732;DHT22;13585;50.864;4.406;2023-07-20T01:39:16;28.10;48.20
25732;DHT22;13585;50.864;4.406;2023-07-20T01:41:42;28.10;48.30
25732;DHT22;13585;50.864;4.406;2023-07-20T01:44:08;28.10;48.30
25732;DHT22;13585;50.864;4.406;2023-07-20T01:46:34;28.10;48.40
25732;DHT22;13585;50.864;4.406;2023-07-20T01:48:59;28.10;48.40
25732;DHT22;13585;50.864;4.406;2023-07-20T01:51:25;28.10;48.40
25732;DHT22;13585;50.864;4.406;2023-07-20T01:53:50;28.10;48.40
25732;DHT22;13585;50.864;4.406;2023-07-20T01:56:16;28.10;48.40
25732;DHT22;13585;50.864;4.406;2023-07-20T01:58:42;28.10;48.40
25732;DHT22;13585;50.864;4.406;2023-07-20T02:01:07;28.10;48.30
25732;DHT22;13585;50.864;4.406;2023-07-20T02:03:33;28.10;48.30
25732;DHT22;13585;50.864;4.406;2023-07-20T02:05:58;28.10;48.30
25732;DHT22;13585;50.864;4.406;2023-07-20T02:08:24;28.10;48.30
25732;DHT22;13585;50.864;4.406;2023-07-20T02:10:51;28.10;48.30
25732;DHT22;13585;50.864;4.406;2023-07-20T02:13:17;28.10;48.30
25732;DHT22;13585;50.864;4.406;2023-07-20T02:15:42;28.10;48.30
25732;DHT22;13585;50.864;4.406;2023-07-20T02:18:08;28.10;48.30
25732;DHT22;13585;50.864;4.406;2023-07-20T02:20:35;28.10;48.30
25732;DHT22;13585;50.864;4.406;2023-07-20T02:23:01;28.10;48.40
25732;DHT22;13585;50.864;4.406;2023-07-20T02:25:26;28.10;48.40
25732;DHT22;13585;50.864;4.406;2023-07-20T02:27:52;28.10;48.40
25732;DHT22;13585;50.864;4.406;2023-07-20T02:30:18;28.10;48.40
25732;DHT22;13585;50.864;4.406;2023-07-20T02:32:43;28.10;48.50
25732;DHT22;13585;50.864;4.406;2023-07-20T02:35:14;28.10;48.50
25732;DHT22;13585;50.864;4.406;2023-07-20T02:37:40;28.10;48.50
25732;DHT22;13585;50.864;4.406;2023-07-20T02:40:06;28.10;48.50
25732;DHT22;13585;50.864;4.406;2023-07-20T02:42:32;28.10;48.50
25732;DHT22;13585;50.864;4.406;2023-07-20T02:44:58;28.10;48.50
25732;DHT22;13585;50.864;4.406;2023-07-20T02:47:24;28.10;48.60
25732;DHT22;13585;50.864;4.406;2023-07-20T02:49:49;28.10;48.60
25732;DHT22;13585;50.864;4.406;2023-07-20T02:52:15;28.10;48.60
25732;DHT22;13585;50.864;4.406;2023-07-20T02:54:40;28.10;48.70
25732;DHT22;13585;50.864;4.406;2023-07-20T02:57:06;28.10;48.70
25732;DHT22;13585;50.864;4.406;2023-07-20T02:59:32;28.00;48.60
25732;DHT22;13585;50.864;4.406;2023-07-20T03:01:57;28.10;48.70
25732;DHT22;13585;50.864;4.406;2023-07-20T03:04:26;28.10;48.70
25732;DHT22;13585;50.864;4.406;2023-07-20T03:06:51;28.00;48.70
25732;DHT22;13585;50.864;4.406;2023-07-20T03:09:17;28.10;48.70
25732;DHT22;13585;50.864;4.406;2023-07-20T03:11:43;28.10;48.80
25732;DHT22;13585;50.864;4.406;2023-07-20T03:14:08;28.00;48.70
25732;DHT22;13585;50.864;4.406;2023-07-20T03:16:36;28.00;48.70
25732;DHT22;13585;50.864;4.406;2023-07-20T03:19:02;28.00;48.80
25732;DHT22;13585;50.864;4.406;2023-07-20T03:21:27;28.00;48.80
25732;DHT22;13585;50.864;4.406;2023-07-20T03:23:54;28.00;48.80
25732;DHT22;13585;50.864;4.406;2023-07-20T03:26:20;28.00;48.90
25732;DHT22;13585;50.864;4.406;2023-07-20T03:28:45;28.00;48.90
25732;DHT22;13585;50.864;4.406;2023-07-20T03:31:11;28.00;48.90
25732;DHT22;13585;50.864;4.406;2023-07-20T03:33:36;28.00;49.00
25732;DHT22;13585;50.864;4.406;2023-07-20T03:36:02;28.00;49.00
25732;DHT22;13585;50.864;4.406;2023-07-20T03:38:28;28.00;49.00
25732;DHT22;13585;50.864;4.406;2023-07-20T03:40:55;28.00;49.00
25732;DHT22;13585;50.864;4.406;2023-07-20T03:43:22;27.90;49.00
25732;DHT22;13585;50.864;4.406;2023-07-20T03:45:48;28.00;49.10
25732;DHT22;13585;50.864;4.406;2023-07-20T03:48:15;28.00;49.10
25732;DHT22;13585;50.864;4.406;2023-07-20T03:50:41;28.00;49.10
25732;DHT22;13585;50.864;4.406;2023-07-20T03:53:07;28.00;49.10
25732;DHT22;13585;50.864;4.406;2023-07-20T03:55:33;28.00;49.10
25732;DHT22;13585;50.864;4.406;2023-07-20T03:57:58;27.90;49.10
25732;DHT22;13585;50.864;4.406;2023-07-20T04:00:24;28.00;49.20
25732;DHT22;13585;50.864;4.406;2023-07-20T04:02:49;28.00;49.20
25732;DHT22;13585;50.864;4.406;2023-07-20T04:05:15;28.00;49.20
25732;DHT22;13585;50.864;4.406;2023-07-20T04:07:41;27.90;49.10
25732;DHT22;13585;50.864;4.406;2023-07-20T04:10:06;27.90;49.20
25732;DHT22;13585;50.864;4.406;2023-07-20T04:12:32;27.90;49.20
25732;DHT22;13585;50.864;4.406;2023-07-20T04:14:58;28.00;49.20
25732;DHT22;13585;50.864;4.406;2023-07-20T04:17:23;27.90;49.20
25732;DHT22;13585;50.864;4.406;2023-07-20T04:19:49;27.90;49.20
25732;DHT22;13585;50.864;4.406;2023-07-20T04:22:14;27.90;49.30
25732;DHT22;13585;50.864;4.406;2023-07-20T04:24:42;27.90;49.30
25732;DHT22;13585;50.864;4.406;2023-07-20T04:27:08;27.90;49.30
25732;DHT22;13585;50.864;4.406;2023-07-20T04:29:33;27.90;49.30
25732;DHT22;13585;50.864;4.406;2023-07-20T04:31:59;27.90;49.30
25732;DHT22;13585;50.864;4.406;2023-07-20T04:34:25;27.90;49.30
25732;DHT22;13585;50.864;4.406;2023-07-20T04:36:51;27.90;49.30
25732;DHT22;13585;50.864;4.406;2023-07-20T04:39:16;27.90;49.40
25732;DHT22;13585;50.864;4.406;2023-07-20T04:41:42;27.90;49.50
25732;DHT22;13585;50.864;4.406;2023-07-20T04:44:08;27.90;49.40
25732;DHT22;13585;50.864;4.406;2023-07-20T04:46:33;27.90;49.40
25732;DHT22;13585;50.864;4.406;2023-07-20T04:48:59;27.90;49.40
25732;DHT22;13585;50.864;4.406;2023-07-20T04:51:25;27.90;49.40
25732;DHT22;13585;50.864;4.406;2023-07-20T04:53:50;27.90;49.30
25732;DHT22;13585;50.864;4.406;2023-07-20T04:56:16;27.90;49.30
25732;DHT22;13585;50.864;4.406;2023-07-20T04:58:42;28.00;49.40
25732;DHT22;13585;50.864;4.406;2023-07-20T05:01:08;28.00;49.40
25732;DHT22;13585;50.864;4.406;2023-07-20T05:03:34;28.00;49.40
25732;DHT22;13585;50.864;4.406;2023-07-20T05:06:02;28.00;49.40
25732;DHT22;13585;50.864;4.406;2023-07-20T05:08:28;28.00;49.40
25732;DHT22;13585;50.864;4.406;2023-07-20T05:10:53;28.00;50.10
25732;DHT22;13585;50.864;4.406;2023-07-20T05:13:19;28.00;49.40
25732;DHT22;13585;50.864;4.406;2023-07-20T05:15:44;28.00;49.50
25732;DHT22;13585;50.864;4.406;2023-07-20T05:18:10;28.00;49.50
25732;DHT22;13585;50.864;4.406;2023-07-20T05:20:35;28.00;49.50
25732;DHT22;13585;50.864;4.406;2023-07-20T05:23:02;27.90;49.50
25732;DHT22;13585;50.864;4.406;2023-07-20T05:25:28;28.00;49.50
25732;DHT22;13585;50.864;4.406;2023-07-20T05:27:53;28.00;49.50
25732;DHT22;13585;50.864;4.406;2023-07-20T05:30:20;28.00;49.50
25732;DHT22;13585;50.864;4.406;2023-07-20T05:32:46;28.00;49.50
25732;DHT22;13585;50.864;4.406;2023-07-20T05:35:19;27.90;49.50
25732;DHT22;13585;50.864;4.406;2023-07-20T05:37:45;28.00;49.50
25732;DHT22;13585;50.864;4.406;2023-07-20T05:40:12;28.00;49.50
25732;DHT22;13585;50.864;4.406;2023-07-20T05:42:38;28.00;49.60
25732;DHT22;13585;50.864;4.406;2023-07-20T05:45:05;28.00;49.60
25732;DHT22;13585;50.864;4.406;2023-07-20T05:47:30;28.00;49.70
25732;DHT22;13585;50.864;4.406;2023-07-20T05:49:57;28.00;50.40
25732;DHT22;13585;50.864;4.406;2023-07-20T05:52:26;28.00;49.80
25732;DHT22;13585;50.864;4.406;2023-07-20T05:54:51;28.00;49.80
25732;DHT22;13585;50.864;4.406;2023-07-20T05:57:17;28.00;49.90
25732;DHT22;13585;50.864;4.406;2023-07-20T05:59:42;28.00;49.80
25732;DHT22;13585;50.864;4.406;2023-07-20T06:02:10;28.00;49.80
25732;DHT22;13585;50.864;4.406;2023-07-20T06:04:35;28.00;49.90
25732;DHT22;13585;50.864;4.406;2023-07-20T06:07:01;28.00;49.90
25732;DHT22;13585;50.864;4.406;2023-07-20T06:09:27;28.00;49.90
25732;DHT22;13585;50.864;4.406;2023-07-20T06:11:53;28.00;50.00
25732;DHT22;13585;50.864;4.406;2023-07-20T06:14:19;28.00;50.00
25732;DHT22;13585;50.864;4.406;2023-07-20T06:16:44;28.00;50.00
25732;DHT22;13585;50.864;4.406;2023-07-20T06:19:10;28.00;50.00
25732;DHT22;13585;50.864;4.406;2023-07-20T06:21:39;28.00;50.00
25732;DHT22;13585;50.864;4.406;2023-07-20T06:24:05;28.00;49.90
25732;DHT22;13585;50.864;4.406;2023-07-20T06:26:31;28.00;49.90
25732;DHT22;13585;50.864;4.406;2023-07-20T06:29:03;28.00;49.90
25732;DHT22;13585;50.864;4.406;2023-07-20T06:31:29;28.00;49.90
25732;DHT22;13585;50.864;4.406;2023-07-20T06:33:54;27.90;49.80
25732;DHT22;13585;50.864;4.406;2023-07-20T06:36:20;28.00;49.80
25732;DHT22;13585;50.864;4.406;2023-07-20T06:38:45;28.00;49.80
25732;DHT22;13585;50.864;4.406;2023-07-20T06:41:11;28.00;49.80
25732;DHT22;13585;50.864;4.406;2023-07-20T06:43:36;27.90;49.80
25732;DHT22;13585;50.864;4.406;2023-07-20T06:46:02;27.90;49.70
25732;DHT22;13585;50.864;4.406;2023-07-20T06:48:28;27.90;49.70
25732;DHT22;13585;50.864;4.406;2023-07-20T06:50:53;28.00;49.80
25732;DHT22;13585;50.864;4.406;2023-07-20T06:53:19;28.00;49.80
25732;DHT22;13585;50.864;4.406;2023-07-20T06:55:45;28.00;49.70
25732;DHT22;13585;50.864;4.406;2023-07-20T06:58:11;28.00;49.70
25732;DHT22;13585;50.864;4.406;2023-07-20T07:00:37;27.90;49.70
25732;DHT22;13585;50.864;4.406;2023-07-20T07:03:02;28.00;49.70
25732;DHT22;13585;50.864;4.406;2023-07-20T07:05:28;28.00;49.70
25732;DHT22;13585;50.864;4.406;2023-07-20T07:07:53;27.90;49.70
25732;DHT22;13585;50.864;4.406;2023-07-20T07:10:19;28.00;49.70
25732;DHT22;13585;50.864;4.406;2023-07-20T07:12:45;27.90;49.60
25732;DHT22;13585;50.864;4.406;2023-07-20T07:15:10;28.00;49.20
25732;DHT22;13585;50.864;4.406;2023-07-20T07:17:36;27.90;49.60
25732;DHT22;13585;50.864;4.406;2023-07-20T07:20:02;28.00;49.60
25732;DHT22;13585;50.864;4.406;2023-07-20T07:22:29;27.90;49.60
25732;DHT22;13585;50.864;4.406;2023-07-20T07:24:55;27.90;49.60
25732;DHT22;13585;50.864;4.406;2023-07-20T07:27:21;27.90;50.20
25732;DHT22;13585;50.864;4.406;2023-07-20T07:29:47;27.90;49.50
25732;DHT22;13585;50.864;4.406;2023-07-20T07:32:14;27.90;49.40
25732;DHT22;13585;50.864;4.406;2023-07-20T07:34:40;27.90;49.30
25732;DHT22;13585;50.864;4.406;2023-07-20T07:37:05;28.10;48.80
25732;DHT22;13585;50.864;4.406;2023-07-20T07:39:31;28.00;49.40
25732;DHT22;13585;50.864;4.406;2023-07-20T07:41:57;27.90;49.20
25732;DHT22;13585;50.864;4.406;2023-07-20T07:44:23;27.90;49.10
25732;DHT22;13585;50.864;4.406;2023-07-20T07:46:49;28.00;49.10
25732;DHT22;13585;50.864;4.406;2023-07-20T07:49:15;28.00;48.90
25732;DHT22;13585;50.864;4.406;2023-07-20T07:51:40;28.00;48.80
25732;DHT22;13585;50.864;4.406;2023-07-20T07:54:06;28.00;48.70
25732;DHT22;13585;50.864;4.406;2023-07-20T07:56:31;28.00;48.70
25732;DHT22;13585;50.864;4.406;2023-07-20T07:58:57;28.00;48.70
25732;DHT22;13585;50.864;4.406;2023-07-20T08:01:23;28.00;48.70
25732;DHT22;13585;50.864;4.406;2023-07-20T08:03:49;28.00;48.70
25732;DHT22;13585;50.864;4.406;2023-07-20T08:06:14;28.00;48.70
25732;DHT22;13585;50.864;4.406;2023-07-20T08:08:40;28.00;48.60
25732;DHT22;13585;50.864;4.406;2023-07-20T08:11:06;28.00;48.60
25732;DHT22;13585;50.864;4.406;2023-07-20T08:13:31;28.00;48.60
25732;DHT22;13585;50.864;4.406;2023-07-20T08:15:57;27.90;48.50
25732;DHT22;13585;50.864;4.406;2023-07-20T08:18:23;27.90;48.50
25732;DHT22;13585;50.864;4.406;2023-07-20T08:20:49;27.90;48.50
25732;DHT22;13585;50.864;4.406;2023-07-20T08:23:15;27.90;48.50
25732;DHT22;13585;50.864;4.406;2023-07-20T08:25:41;28.00;48.50
25732;DHT22;13585;50.864;4.406;2023-07-20T08:28:18;28.00;48.40
25732;DHT22;13585;50.864;4.406;2023-07-20T08:30:47;27.90;48.30
25732;DHT22;13585;50.864;4.406;2023-07-20T08:33:14;27.90;48.20
25732;DHT22;13585;50.864;4.406;2023-07-20T08:35:41;28.00;48.30
25732;DHT22;13585;50.864;4.406;2023-07-20T08:38:07;28.00;48.20
25732;DHT22;13585;50.864;4.406;2023-07-20T08:40:43;28.00;48.30
25732;DHT22;13585;50.864;4.406;2023-07-20T08:43:10;27.90;48.30
25732;DHT22;13585;50.864;4.406;2023-07-20T08:45:39;27.90;48.20
25732;DHT22;13585;50.864;4.406;2023-07-20T08:48:06;27.90;48.20
25732;DHT22;13585;50.864;4.406;2023-07-20T08:50:32;28.00;48.20
25732;DHT22;13585;50.864;4.406;2023-07-20T08:52:59;28.00;48.20
25732;DHT22;13585;50.864;4.406;2023-07-20T08:55:29;28.00;48.20
25732;DHT22;13585;50.864;4.406;2023-07-20T08:57:56;28.00;48.00
25732;DHT22;13585;50.864;4.406;2023-07-20T09:00:23;28.00;47.90
25732;DHT22;13585;50.864;4.406;2023-07-20T09:02:50;28.00;47.80
25732;DHT22;13585;50.864;4.406;2023-07-20T09:05:17;28.00;47.80
25732;DHT22;13585;50.864;4.406;2023-07-20T09:07:43;28.00;47.80
25732;DHT22;13585;50.864;4.406;2023-07-20T09:10:09;28.00;47.70
25732;DHT22;13585;50.864;4.406;2023-07-20T09:12:37;28.00;47.60
25732;DHT22;13585;50.864;4.406;2023-07-20T09:15:03;28.00;47.50
25732;DHT22;13585;50.864;4.406;2023-07-20T09:17:29;28.00;47.50
25732;DHT22;13585;50.864;4.406;2023-07-20T09:19:54;28.00;47.60
25732;DHT22;13585;50.864;4.406;2023-07-20T09:22:20;28.00;47.60
25732;DHT22;13585;50.864;4.406;2023-07-20T09:24:46;28.00;47.60
25732;DHT22;13585;50.864;4.406;2023-07-20T09:27:12;28.00;47.70
25732;DHT22;13585;50.864;4.406;2023-07-20T09:29:48;28.00;47.70
25732;DHT22;13585;50.864;4.406;2023-07-20T09:32:20;27.90;47.80
25732;DHT22;13585;50.864;4.406;2023-07-20T09:34:46;27.90;47.80
25732;DHT22;13585;50.864;4.406;2023-07-20T09:37:12;27.90;47.80
25732;DHT22;13585;50.864;4.406;2023-07-20T09:39:46;27.90;47.90
25732;DHT22;13585;50.864;4.406;2023-07-20T09:42:12;27.90;47.90
25732;DHT22;13585;50.864;4.406;2023-07-20T09:44:39;28.00;47.90
25732;DHT22;13585;50.864;4.406;2023-07-20T09:47:06;28.00;47.80
25732;DHT22;13585;50.864;4.406;2023-07-20T09:49:32;28.00;47.90
25732;DHT22;13585;50.864;4.406;2023-07-20T09:51:58;28.00;47.80
25732;DHT22;13585;50.864;4.406;2023-07-20T09:54:26;28.00;47.70
25732;DHT22;13585;50.864;4.406;2023-07-20T09:56:52;28.00;47.60
25732;DHT22;13585;50.864;4.406;2023-07-20T09:59:18;28.00;47.60
25732;DHT22;13585;50.864;4.406;2023-07-20T10:01:45;28.00;47.60
25732;DHT22;13585;50.864;4.406;2023-07-20T10:04:12;28.00;47.60
25732;DHT22;13585;50.864;4.406;2023-07-20T10:06:41;28.00;47.60
25732;DHT22;13585;50.864;4.406;2023-07-20T10:09:08;28.00;47.60
25732;DHT22;13585;50.864;4.406;2023-07-20T10:11:36;28.00;47.60
25732;DHT22;13585;50.864;4.406;2023-07-20T10:14:05;28.00;47.60
25732;DHT22;13585;50.864;4.406;2023-07-20T10:16:44;28.00;47.70
25732;DHT22;13585;50.864;4.406;2023-07-20T10:19:21;27.90;47.80
25732;DHT22;13585;50.864;4.406;2023-07-20T10:22:03;27.90;47.70
25732;DHT22;13585;50.864;4.406;2023-07-20T10:24:36;28.00;47.70
25732;DHT22;13585;50.864;4.406;2023-07-20T10:27:02;28.00;47.70
25732;DHT22;13585;50.864;4.406;2023-07-20T10:29:28;28.00;47.70
25732;DHT22;13585;50.864;4.406;2023-07-20T10:31:55;28.00;47.80
25732;DHT22;13585;50.864;4.406;2023-07-20T10:34:28;28.00;47.80
25732;DHT22;13585;50.864;4.406;2023-07-20T10:36:56;28.00;47.90
25732;DHT22;13585;50.864;4.406;2023-07-20T10:39:47;27.90;47.80
25732;DHT22;13585;50.864;4.406;2023-07-20T10:42:19;28.00;47.80
25732;DHT22;13585;50.864;4.406;2023-07-20T10:44:45;28.00;47.90
25732;DHT22;13585;50.864;4.406;2023-07-20T10:47:13;28.00;48.50
25732;DHT22;13585;50.864;4.406;2023-07-20T10:49:58;28.00;47.90
25732;DHT22;13585;50.864;4.406;2023-07-20T10:52:24;28.00;48.00
25732;DHT22;13585;50.864;4.406;2023-07-20T10:54:49;28.00;48.50
25732;DHT22;13585;50.864;4.406;2023-07-20T10:57:33;28.00;47.90
25732;DHT22;13585;50.864;4.406;2023-07-20T11:00:12;28.00;47.90
25732;DHT22;13585;50.864;4.406;2023-07-20T11:02:43;28.00;47.80
25732;DHT22;13585;50.864;4.406;2023-07-20T11:05:38;28.00;47.80
25732;DHT22;13585;50.864;4.406;2023-07-20T11:08:12;28.00;47.90
25732;DHT22;13585;50.864;4.406;2023-07-20T11:10:40;28.10;47.90
25732;DHT22;13585;50.864;4.406;2023-07-20T11:13:24;28.00;47.80
25732;DHT22;13585;50.864;4.406;2023-07-20T11:18:27;28.00;47.90
25732;DHT22;13585;50.864;4.406;2023-07-20T11:20:53;28.00;47.90
25732;DHT22;13585;50.864;4.406;2023-07-20T11:23:22;28.00;47.90
25732;DHT22;13585;50.864;4.406;2023-07-20T11:25:49;27.90;47.80
25732;DHT22;13585;50.864;4.406;2023-07-20T11:28:15;28.00;47.90
25732;DHT22;13585;50.864;4.406;2023-07-20T11:30:41;28.00;47.90
25732;DHT22;13585;50.864;4.406;2023-07-20T11:33:09;28.00;47.80
25732;DHT22;13585;50.864;4.406;2023-07-20T11:35:45;28.00;47.80
25732;DHT22;13585;50.864;4.406;2023-07-20T11:38:13;28.00;47.80
25732;DHT22;13585;50.864;4.406;2023-07-20T11:40:45;28.00;47.70
25732;DHT22;13585;50.864;4.406;2023-07-20T11:43:12;28.00;47.80
25732;DHT22;13585;50.864;4.406;2023-07-20T11:45:39;28.00;47.70
25732;DHT22;13585;50.864;4.406;2023-07-20T11:48:05;28.00;47.70
25732;DHT22;13585;50.864;4.406;2023-07-20T11:50:30;28.00;47.70
25732;DHT22;13585;50.864;4.406;2023-07-20T11:52:56;28.00;47.70
25732;DHT22;13585;50.864;4.406;2023-07-20T11:55:22;28.00;47.70
25732;DHT22;13585;50.864;4.406;2023-07-20T11:58:03;28.00;47.70
25732;DHT22;13585;50.864;4.406;2023-07-20T12:00:29;28.00;47.80
25732;DHT22;13585;50.864;4.406;2023-07-20T12:02:55;28.10;47.70
25732;DHT22;13585;50.864;4.406;2023-07-20T12:05:22;28.00;47.60
25732;DHT22;13585;50.864;4.406;2023-07-20T12:07:49;28.00;47.60
25732;DHT22;13585;50.864;4.406;2023-07-20T12:10:26;28.00;47.60
25732;DHT22;13585;50.864;4.406;2023-07-20T12:12:53;28.00;47.60
25732;DHT22;13585;50.864;4.406;2023-07-20T12:15:23;28.10;47.50
25732;DHT22;13585;50.864;4.406;2023-07-20T12:17:51;28.00;47.50
25732;DHT22;13585;50.864;4.406;2023-07-20T12:20:30;28.00;47.50
25732;DHT22;13585;50.864;4.406;2023-07-20T12:23:04;28.00;47.50
25732;DHT22;13585;50.864;4.406;2023-07-20T12:28:05;28.00;47.50
25732;DHT22;13585;50.864;4.406;2023-07-20T12:30:31;28.00;47.50
25732;DHT22;13585;50.864;4.406;2023-07-20T12:32:56;28.10;47.50
25732;DHT22;13585;50.864;4.406;2023-07-20T12:35:22;28.10;47.50
25732;DHT22;13585;50.864;4.406;2023-07-20T12:37:48;28.00;47.40
25732;DHT22;13585;50.864;4.406;2023-07-20T12:40:14;28.00;47.40
25732;DHT22;13585;50.864;4.406;2023-07-20T12:42:40;28.00;47.20
25732;DHT22;13585;50.864;4.406;2023-07-20T12:45:06;28.00;47.20
25732;DHT22;13585;50.864;4.406;2023-07-20T12:47:32;28.00;47.30
25732;DHT22;13585;50.864;4.406;2023-07-20T12:49:57;28.00;47.30
25732;DHT22;13585;50.864;4.406;2023-07-20T12:52:23;28.00;47.40
25732;DHT22;13585;50.864;4.406;2023-07-20T12:54:48;28.00;47.40
25732;DHT22;13585;50.864;4.406;2023-07-20T12:57:14;28.00;47.30
25732;DHT22;13585;50.864;4.406;2023-07-20T12:59:41;28.00;46.80
25732;DHT22;13585;50.864;4.406;2023-07-20T13:02:06;28.00;47.40
25732;DHT22;13585;50.864;4.406;2023-07-20T13:04:32;28.00;47.40
25732;DHT22;13585;50.864;4.406;2023-07-20T13:06:57;28.00;47.40
25732;DHT22;13585;50.864;4.406;2023-07-20T13:09:24;28.00;47.40
25732;DHT22;13585;50.864;4.406;2023-07-20T13:11:50;28.00;47.40
25732;DHT22;13585;50.864;4.406;2023-07-20T13:14:16;28.00;47.30
25732;DHT22;13585;50.864;4.406;2023-07-20T13:16:42;28.00;47.30
25732;DHT22;13585;50.864;4.406;2023-07-20T13:19:08;28.00;47.30
25732;DHT22;13585;50.864;4.406;2023-07-20T13:21:33;28.00;47.30
25732;DHT22;13585;50.864;4.406;2023-07-20T13:23:59;28.00;47.30
25732;DHT22;13585;50.864;4.406;2023-07-20T13:26:25;28.00;47.30
25732;DHT22;13585;50.864;4.406;2023-07-20T13:28:51;28.00;47.20
25732;DHT22;13585;50.864;4.406;2023-07-20T13:31:16;28.00;47.20
25732;DHT22;13585;50.864;4.406;2023-07-20T13:33:43;28.10;47.30
25732;DHT22;13585;50.864;4.406;2023-07-20T13:36:09;28.00;47.20
25732;DHT22;13585;50.864;4.406;2023-07-20T13:38:34;28.00;47.10
25732;DHT22;13585;50.864;4.406;2023-07-20T13:41:00;28.00;47.10
25732;DHT22;13585;50.864;4.406;2023-07-20T13:43:25;28.00;47.10
25732;DHT22;13585;50.864;4.406;2023-07-20T13:45:51;28.00;47.00
25732;DHT22;13585;50.864;4.406;2023-07-20T13:48:17;28.00;46.90
25732;DHT22;13585;50.864;4.406;2023-07-20T13:50:45;28.00;47.00
25732;DHT22;13585;50.864;4.406;2023-07-20T13:53:11;28.00;46.90
25732;DHT22;13585;50.864;4.406;2023-07-20T13:55:37;28.00;46.30
25732;DHT22;13585;50.864;4.406;2023-07-20T13:58:03;28.00;46.80
25732;DHT22;13585;50.864;4.406;2023-07-20T14:00:30;28.00;46.80
25732;DHT22;13585;50.864;4.406;2023-07-20T14:02:58;28.00;46.80
25732;DHT22;13585;50.864;4.406;2023-07-20T14:05:24;28.00;46.70
25732;DHT22;13585;50.864;4.406;2023-07-20T14:07:50;28.00;46.70
25732;DHT22;13585;50.864;4.406;2023-07-20T14:10:16;28.00;46.80
25732;DHT22;13585;50.864;4.406;2023-07-20T14:12:43;28.10;46.80
25732;DHT22;13585;50.864;4.406;2023-07-20T14:15:10;28.00;46.80
25732;DHT22;13585;50.864;4.406;2023-07-20T14:17:35;28.00;46.80
25732;DHT22;13585;50.864;4.406;2023-07-20T14:20:01;28.00;46.80
25732;DHT22;13585;50.864;4.406;2023-07-20T14:22:30;28.10;46.90
25732;DHT22;13585;50.864;4.406;2023-07-20T14:24:56;28.10;46.90
25732;DHT22;13585;50.864;4.406;2023-07-20T14:27:22;28.10;46.90
25732;DHT22;13585;50.864;4.406;2023-07-20T14:29:47;28.00;46.90
25732;DHT22;13585;50.864;4.406;2023-07-20T14:32:13;28.10;46.90
25732;DHT22;13585;50.864;4.406;2023-07-20T14:34:38;28.10;47.00
25732;DHT22;13585;50.864;4.406;2023-07-20T14:37:05;28.00;46.90
25732;DHT22;13585;50.864;4.406;2023-07-20T14:39:31;28.10;47.00
25732;DHT22;13585;50.864;4.406;2023-07-20T14:41:57;28.00;46.90
25732;DHT22;13585;50.864;4.406;2023-07-20T14:44:23;28.00;46.90
25732;DHT22;13585;50.864;4.406;2023-07-20T14:46:48;28.00;46.90
25732;DHT22;13585;50.864;4.406;2023-07-20T14:49:14;28.10;47.00
25732;DHT22;13585;50.864;4.406;2023-07-20T14:51:40;28.00;47.00
25732;DHT22;13585;50.864;4.406;2023-07-20T14:54:11;28.00;47.00
25732;DHT22;13585;50.864;4.406;2023-07-20T14:56:38;28.00;47.00
25732;DHT22;13585;50.864;4.406;2023-07-20T14:59:04;28.00;47.00
25732;DHT22;13585;50.864;4.406;2023-07-20T15:01:31;28.10;47.00
25732;DHT22;13585;50.864;4.406;2023-07-20T15:03:57;28.10;46.90
25732;DHT22;13585;50.864;4.406;2023-07-20T15:06:23;28.00;46.80
25732;DHT22;13585;50.864;4.406;2023-07-20T15:08:48;28.10;46.30
25732;DHT22;13585;50.864;4.406;2023-07-20T15:11:14;28.10;46.90
25732;DHT22;13585;50.864;4.406;2023-07-20T15:13:40;28.10;46.90
25732;DHT22;13585;50.864;4.406;2023-07-20T15:16:08;28.10;46.90
25732;DHT22;13585;50.864;4.406;2023-07-20T15:18:35;28.00;46.90
25732;DHT22;13585;50.864;4.406;2023-07-20T15:21:00;28.00;46.90
25732;DHT22;13585;50.864;4.406;2023-07-20T15:23:26;28.10;46.40
25732;DHT22;13585;50.864;4.406;2023-07-20T15:25:51;28.00;46.80
25732;DHT22;13585;50.864;4.406;2023-07-20T15:28:18;28.10;46.90
25732;DHT22;13585;50.864;4.406;2023-07-20T15:30:44;28.10;46.90
25732;DHT22;13585;50.864;4.406;2023-07-20T15:33:09;28.10;46.90
25732;DHT22;13585;50.864;4.406;2023-07-20T15:35:36;28.10;46.90
25732;DHT22;13585;50.864;4.406;2023-07-20T15:38:02;28.10;46.90
25732;DHT22;13585;50.864;4.406;2023-07-20T15:40:27;28.10;46.90
25732;DHT22;13585;50.864;4.406;2023-07-20T15:42:53;28.10;47.00